Lynn Lake Airport
CYYL : rendu visible

Aérodrome :











RETROUVEZ-NOUS SUR...

 
LOGIN :

S'inscrire | Disclaimer

   EN    FR    IT 

 









Légende :    VFR   VFR Marginal   IFR   IFR Intensif   IFR Très Intensif
Visi : 
Plafond : 
>= 8 km
>= 3000ft
5 à 8 km
1000 à 3000 ft
1500m à 5 km
500 à 1000 ft
800 à 1500m
200 à 500 ft
< 800m
< 200 ft
Symboles :   Orages  Brouillard  Fortes neiges  Fortes précipitations  Vent > 20 kt






- Altitude de l'aérodrome : 1170 ft
- Code IATA : YYL


CYYL - Lynn Lake

DERNIER METAR :
  • 311900Z AUTO 14011G16KT 9SM BKN180 OVC220 21/M00 A2993 RMK SLP148 DENSITY ALT 2000FT

METARs EXPIRÉS :
  • 311800Z AUTO 13011KT 090V170 9SM BKN230 19/00 A2996 RMK SLP156 DENSITY ALT 1800FT
  • 311700Z AUTO 13011G16KT 9SM BKN230 18/M00 A2998 RMK SLP165 DENSITY ALT 1700FT

TAF TAF CYYL
Valide du 31 à 19h jusqu'au 01 à 07h UTC


311838Z 3119/0107 13012KT P6SM BKN230
FM312100 10012KT P6SM BKN120 RMK FCST BASED ON AUTO OBS. NXT FCST BY 010100Z
FIR CZWG / Amérique du Nord



MET'MAP, la Météo Aéronautique d'un coup d'oeil ! - Copyright ORBIFLY Décembre 2007 - Disclaimer

ORBIFLY MET'MAP TEAM :

Programmation & Développement : Alexandra Zaïnal
Sur une idée originale de : Baudouin d'Aumeries
Assistance à la programmation : Marc-Olivier Méhu
Soutien technique & logistique : Manuel Goepfert

Contact : metmap@orbifly.com




SOURCES & CREDITS :

   NOAA       Earth
Advisory